sensor_id;sensor_type;location;lat;lon;timestamp;temperature;humidity
14008;DHT22;61651;45.508;12.232;2023-03-12T00:01:45;14.00;99.90
14008;DHT22;61651;45.508;12.232;2023-03-12T00:04:47;14.00;99.90
14008;DHT22;61651;45.508;12.232;2023-03-12T00:07:52;14.10;99.90
14008;DHT22;61651;45.508;12.232;2023-03-12T00:10:54;14.20;99.90
14008;DHT22;61651;45.508;12.232;2023-03-12T00:13:57;14.20;99.90
14008;DHT22;61651;45.508;12.232;2023-03-12T00:17:01;14.20;99.90
14008;DHT22;61651;45.508;12.232;2023-03-12T00:20:04;14.20;99.90
14008;DHT22;61651;45.508;12.232;2023-03-12T00:23:07;14.20;99.90
14008;DHT22;61651;45.508;12.232;2023-03-12T00:26:10;14.30;99.90
14008;DHT22;61651;45.508;12.232;2023-03-12T00:29:12;14.30;99.90
14008;DHT22;61651;45.508;12.232;2023-03-12T00:32:16;14.30;99.90
14008;DHT22;61651;45.508;12.232;2023-03-12T00:35:18;14.30;99.90
14008;DHT22;61651;45.508;12.232;2023-03-12T00:38:20;14.30;99.90
14008;DHT22;61651;45.508;12.232;2023-03-12T00:41:23;14.20;99.90
14008;DHT22;61651;45.508;12.232;2023-03-12T00:44:26;14.20;99.90
14008;DHT22;61651;45.508;12.232;2023-03-12T00:47:29;14.00;99.90
14008;DHT22;61651;45.508;12.232;2023-03-12T00:50:31;14.00;99.90
14008;DHT22;61651;45.508;12.232;2023-03-12T00:53:33;14.00;99.90
14008;DHT22;61651;45.508;12.232;2023-03-12T00:56:35;14.00;99.90
14008;DHT22;61651;45.508;12.232;2023-03-12T00:59:37;14.10;99.90
14008;DHT22;61651;45.508;12.232;2023-03-12T01:02:41;14.00;99.90
14008;DHT22;61651;45.508;12.232;2023-03-12T01:05:43;14.00;99.90
14008;DHT22;61651;45.508;12.232;2023-03-12T01:08:45;14.00;99.90
14008;DHT22;61651;45.508;12.232;2023-03-12T01:11:47;13.90;99.90
14008;DHT22;61651;45.508;12.232;2023-03-12T01:14:49;13.90;99.90
14008;DHT22;61651;45.508;12.232;2023-03-12T01:17:52;13.80;99.90
14008;DHT22;61651;45.508;12.232;2023-03-12T01:20:54;13.90;99.90
14008;DHT22;61651;45.508;12.232;2023-03-12T01:23:56;13.90;99.90
14008;DHT22;61651;45.508;12.232;2023-03-12T01:26:59;13.90;99.90
14008;DHT22;61651;45.508;12.232;2023-03-12T01:30:01;13.90;99.90
14008;DHT22;61651;45.508;12.232;2023-03-12T01:33:04;13.80;99.90
14008;DHT22;61651;45.508;12.232;2023-03-12T01:36:15;13.70;99.90
14008;DHT22;61651;45.508;12.232;2023-03-12T01:39:17;13.70;99.90
14008;DHT22;61651;45.508;12.232;2023-03-12T01:42:19;13.80;99.90
14008;DHT22;61651;45.508;12.232;2023-03-12T01:45:57;13.70;99.90
14008;DHT22;61651;45.508;12.232;2023-03-12T01:49:05;13.70;99.90
14008;DHT22;61651;45.508;12.232;2023-03-12T01:52:10;13.60;99.90
14008;DHT22;61651;45.508;12.232;2023-03-12T01:55:15;13.70;99.90
14008;DHT22;61651;45.508;12.232;2023-03-12T01:58:18;13.80;99.90
14008;DHT22;61651;45.508;12.232;2023-03-12T02:01:22;13.80;99.90
14008;DHT22;61651;45.508;12.232;2023-03-12T02:04:27;13.80;99.90
14008;DHT22;61651;45.508;12.232;2023-03-12T02:07:29;13.90;99.90
14008;DHT22;61651;45.508;12.232;2023-03-12T02:10:31;13.80;99.90
14008;DHT22;61651;45.508;12.232;2023-03-12T02:13:33;13.80;99.90
14008;DHT22;61651;45.508;12.232;2023-03-12T02:16:35;13.90;99.90
14008;DHT22;61651;45.508;12.232;2023-03-12T02:19:45;14.00;99.90
14008;DHT22;61651;45.508;12.232;2023-03-12T02:22:56;14.00;99.90
14008;DHT22;61651;45.508;12.232;2023-03-12T02:26:03;14.10;99.90
14008;DHT22;61651;45.508;12.232;2023-03-12T02:29:07;14.00;99.90
14008;DHT22;61651;45.508;12.232;2023-03-12T02:32:14;14.00;99.90
14008;DHT22;61651;45.508;12.232;2023-03-12T02:35:17;14.10;99.90
14008;DHT22;61651;45.508;12.232;2023-03-12T02:38:32;14.00;99.90
14008;DHT22;61651;45.508;12.232;2023-03-12T02:41:37;14.00;99.90
14008;DHT22;61651;45.508;12.232;2023-03-12T02:44:40;14.00;99.90
14008;DHT22;61651;45.508;12.232;2023-03-12T02:47:44;14.00;99.90
14008;DHT22;61651;45.508;12.232;2023-03-12T02:50:46;14.00;99.90
14008;DHT22;61651;45.508;12.232;2023-03-12T02:53:48;13.90;99.90
14008;DHT22;61651;45.508;12.232;2023-03-12T02:56:55;13.90;99.90
14008;DHT22;61651;45.508;12.232;2023-03-12T02:59:57;13.90;99.90
14008;DHT22;61651;45.508;12.232;2023-03-12T03:03:00;13.90;99.90
14008;DHT22;61651;45.508;12.232;2023-03-12T03:06:02;13.80;99.90
14008;DHT22;61651;45.508;12.232;2023-03-12T03:09:04;13.80;99.90
14008;DHT22;61651;45.508;12.232;2023-03-12T03:12:08;13.70;99.90
14008;DHT22;61651;45.508;12.232;2023-03-12T03:15:10;13.70;99.90
14008;DHT22;61651;45.508;12.232;2023-03-12T03:18:12;13.70;99.90
14008;DHT22;61651;45.508;12.232;2023-03-12T03:21:15;13.70;99.90
14008;DHT22;61651;45.508;12.232;2023-03-12T03:24:17;13.70;99.90
14008;DHT22;61651;45.508;12.232;2023-03-12T03:27:20;13.70;99.90
14008;DHT22;61651;45.508;12.232;2023-03-12T03:30:23;13.70;99.90
14008;DHT22;61651;45.508;12.232;2023-03-12T03:33:25;13.60;99.90
14008;DHT22;61651;45.508;12.232;2023-03-12T03:36:27;13.70;99.90
14008;DHT22;61651;45.508;12.232;2023-03-12T03:39:29;13.70;99.90
14008;DHT22;61651;45.508;12.232;2023-03-12T03:42:32;13.50;99.90
14008;DHT22;61651;45.508;12.232;2023-03-12T03:45:34;13.30;99.80
14008;DHT22;61651;45.508;12.232;2023-03-12T03:48:36;13.30;99.90
14008;DHT22;61651;45.508;12.232;2023-03-12T03:51:38;13.30;99.90
14008;DHT22;61651;45.508;12.232;2023-03-12T03:54:41;13.40;99.90
14008;DHT22;61651;45.508;12.232;2023-03-12T03:57:44;13.40;99.90
14008;DHT22;61651;45.508;12.232;2023-03-12T04:00:48;13.40;99.90
14008;DHT22;61651;45.508;12.232;2023-03-12T04:03:50;13.40;99.70
14008;DHT22;61651;45.508;12.232;2023-03-12T04:06:52;13.40;99.90
14008;DHT22;61651;45.508;12.232;2023-03-12T04:09:54;13.50;99.90
14008;DHT22;61651;45.508;12.232;2023-03-12T04:12:58;13.50;99.90
14008;DHT22;61651;45.508;12.232;2023-03-12T04:16:00;13.40;99.60
14008;DHT22;61651;45.508;12.232;2023-03-12T04:19:02;13.40;99.90
14008;DHT22;61651;45.508;12.232;2023-03-12T04:22:04;13.40;99.70
14008;DHT22;61651;45.508;12.232;2023-03-12T04:25:07;13.50;99.90
14008;DHT22;61651;45.508;12.232;2023-03-12T04:28:10;13.50;99.60
14008;DHT22;61651;45.508;12.232;2023-03-12T04:31:12;13.30;99.70
14008;DHT22;61651;45.508;12.232;2023-03-12T04:34:14;13.30;99.90
14008;DHT22;61651;45.508;12.232;2023-03-12T04:37:17;13.30;99.90
14008;DHT22;61651;45.508;12.232;2023-03-12T04:40:19;13.30;99.60
14008;DHT22;61651;45.508;12.232;2023-03-12T04:43:22;13.20;99.90
14008;DHT22;61651;45.508;12.232;2023-03-12T04:46:24;13.30;99.90
14008;DHT22;61651;45.508;12.232;2023-03-12T04:49:26;13.30;99.80
14008;DHT22;61651;45.508;12.232;2023-03-12T04:52:28;13.40;99.90
14008;DHT22;61651;45.508;12.232;2023-03-12T04:55:30;13.40;99.40
14008;DHT22;61651;45.508;12.232;2023-03-12T04:58:34;13.30;99.30
14008;DHT22;61651;45.508;12.232;2023-03-12T05:01:36;13.10;99.10
14008;DHT22;61651;45.508;12.232;2023-03-12T05:04:38;13.10;99.50
14008;DHT22;61651;45.508;12.232;2023-03-12T05:07:40;13.10;98.70
14008;DHT22;61651;45.508;12.232;2023-03-12T05:10:42;13.00;99.50
14008;DHT22;61651;45.508;12.232;2023-03-12T05:13:47;13.10;99.30
14008;DHT22;61651;45.508;12.232;2023-03-12T05:16:49;13.00;98.80
14008;DHT22;61651;45.508;12.232;2023-03-12T05:19:51;13.00;98.90
14008;DHT22;61651;45.508;12.232;2023-03-12T05:22:53;13.00;98.80
14008;DHT22;61651;45.508;12.232;2023-03-12T05:25:55;13.00;98.50
14008;DHT22;61651;45.508;12.232;2023-03-12T05:28:59;12.90;98.70
14008;DHT22;61651;45.508;12.232;2023-03-12T05:32:02;12.90;98.60
14008;DHT22;61651;45.508;12.232;2023-03-12T05:35:04;12.90;98.70
14008;DHT22;61651;45.508;12.232;2023-03-12T05:38:06;12.90;99.00
14008;DHT22;61651;45.508;12.232;2023-03-12T05:41:09;12.90;99.00
14008;DHT22;61651;45.508;12.232;2023-03-12T05:44:19;12.80;98.70
14008;DHT22;61651;45.508;12.232;2023-03-12T05:47:21;12.80;98.70
14008;DHT22;61651;45.508;12.232;2023-03-12T05:50:24;12.70;98.90
14008;DHT22;61651;45.508;12.232;2023-03-12T05:53:26;12.70;99.20
14008;DHT22;61651;45.508;12.232;2023-03-12T05:56:28;12.70;99.00
14008;DHT22;61651;45.508;12.232;2023-03-12T05:59:31;12.60;98.20
14008;DHT22;61651;45.508;12.232;2023-03-12T06:02:33;12.50;98.40
14008;DHT22;61651;45.508;12.232;2023-03-12T06:05:35;12.50;98.50
14008;DHT22;61651;45.508;12.232;2023-03-12T06:08:38;12.50;98.20
14008;DHT22;61651;45.508;12.232;2023-03-12T06:11:40;12.50;98.40
14008;DHT22;61651;45.508;12.232;2023-03-12T06:14:43;12.50;98.60
14008;DHT22;61651;45.508;12.232;2023-03-12T06:17:45;12.50;98.90
14008;DHT22;61651;45.508;12.232;2023-03-12T06:20:47;12.60;98.80
14008;DHT22;61651;45.508;12.232;2023-03-12T06:23:50;12.60;98.70
14008;DHT22;61651;45.508;12.232;2023-03-12T06:26:53;12.60;98.80
14008;DHT22;61651;45.508;12.232;2023-03-12T06:29:56;12.70;98.60
14008;DHT22;61651;45.508;12.232;2023-03-12T06:32:58;12.70;98.50
14008;DHT22;61651;45.508;12.232;2023-03-12T06:36:02;12.70;98.60
14008;DHT22;61651;45.508;12.232;2023-03-12T06:39:04;12.70;98.50
14008;DHT22;61651;45.508;12.232;2023-03-12T06:42:08;12.70;98.30
14008;DHT22;61651;45.508;12.232;2023-03-12T06:45:13;12.70;98.30
14008;DHT22;61651;45.508;12.232;2023-03-12T06:48:15;12.60;98.60
14008;DHT22;61651;45.508;12.232;2023-03-12T06:51:18;12.60;98.80
14008;DHT22;61651;45.508;12.232;2023-03-12T06:54:20;12.70;98.70
14008;DHT22;61651;45.508;12.232;2023-03-12T06:57:22;12.70;98.20
14008;DHT22;61651;45.508;12.232;2023-03-12T07:00:25;12.60;98.90
14008;DHT22;61651;45.508;12.232;2023-03-12T07:03:27;12.70;99.30
14008;DHT22;61651;45.508;12.232;2023-03-12T07:06:29;12.80;99.50
14008;DHT22;61651;45.508;12.232;2023-03-12T07:09:31;12.90;99.60
14008;DHT22;61651;45.508;12.232;2023-03-12T07:12:33;12.90;99.90
14008;DHT22;61651;45.508;12.232;2023-03-12T07:15:37;12.90;99.50
14008;DHT22;61651;45.508;12.232;2023-03-12T07:18:39;12.80;99.90
14008;DHT22;61651;45.508;12.232;2023-03-12T07:21:41;12.90;99.90
14008;DHT22;61651;45.508;12.232;2023-03-12T07:24:43;13.00;99.50
14008;DHT22;61651;45.508;12.232;2023-03-12T07:27:45;13.00;99.40
14008;DHT22;61651;45.508;12.232;2023-03-12T07:30:49;13.00;98.60
14008;DHT22;61651;45.508;12.232;2023-03-12T07:33:51;13.10;98.70
14008;DHT22;61651;45.508;12.232;2023-03-12T07:36:53;13.20;98.60
14008;DHT22;61651;45.508;12.232;2023-03-12T07:39:56;13.20;98.40
14008;DHT22;61651;45.508;12.232;2023-03-12T07:42:57;13.30;98.70
14008;DHT22;61651;45.508;12.232;2023-03-12T07:46:01;13.40;99.30
14008;DHT22;61651;45.508;12.232;2023-03-12T07:49:03;13.50;99.80
14008;DHT22;61651;45.508;12.232;2023-03-12T07:52:06;13.50;98.50
14008;DHT22;61651;45.508;12.232;2023-03-12T07:55:10;13.50;98.30
14008;DHT22;61651;45.508;12.232;2023-03-12T07:58:12;13.50;99.00
14008;DHT22;61651;45.508;12.232;2023-03-12T08:01:16;13.50;96.90
14008;DHT22;61651;45.508;12.232;2023-03-12T08:04:18;13.50;97.20
14008;DHT22;61651;45.508;12.232;2023-03-12T08:07:20;13.50;98.40
14008;DHT22;61651;45.508;12.232;2023-03-12T08:10:22;13.60;97.60
14008;DHT22;61651;45.508;12.232;2023-03-12T08:13:24;13.70;97.80
14008;DHT22;61651;45.508;12.232;2023-03-12T08:16:28;13.60;96.70
14008;DHT22;61651;45.508;12.232;2023-03-12T08:19:30;13.60;97.20
14008;DHT22;61651;45.508;12.232;2023-03-12T08:22:32;13.60;96.80
14008;DHT22;61651;45.508;12.232;2023-03-12T08:25:34;13.70;96.70
14008;DHT22;61651;45.508;12.232;2023-03-12T08:28:36;13.70;97.10
14008;DHT22;61651;45.508;12.232;2023-03-12T08:31:40;13.80;96.90
14008;DHT22;61651;45.508;12.232;2023-03-12T08:34:42;13.80;95.50
14008;DHT22;61651;45.508;12.232;2023-03-12T08:37:44;13.90;96.00
14008;DHT22;61651;45.508;12.232;2023-03-12T08:40:46;13.90;96.30
14008;DHT22;61651;45.508;12.232;2023-03-12T08:43:48;14.00;96.40
14008;DHT22;61651;45.508;12.232;2023-03-12T08:46:51;14.10;96.90
14008;DHT22;61651;45.508;12.232;2023-03-12T08:49:53;14.30;96.70
14008;DHT22;61651;45.508;12.232;2023-03-12T08:52:55;14.40;96.60
14008;DHT22;61651;45.508;12.232;2023-03-12T08:55:57;14.50;96.70
14008;DHT22;61651;45.508;12.232;2023-03-12T08:58:59;14.60;96.20
14008;DHT22;61651;45.508;12.232;2023-03-12T09:02:02;14.70;95.70
14008;DHT22;61651;45.508;12.232;2023-03-12T09:05:05;14.80;95.90
14008;DHT22;61651;45.508;12.232;2023-03-12T09:08:08;14.80;95.60
14008;DHT22;61651;45.508;12.232;2023-03-12T09:11:12;14.90;95.10
14008;DHT22;61651;45.508;12.232;2023-03-12T09:14:14;14.90;95.30
14008;DHT22;61651;45.508;12.232;2023-03-12T09:17:18;15.00;95.70
14008;DHT22;61651;45.508;12.232;2023-03-12T09:20:20;15.10;95.20
14008;DHT22;61651;45.508;12.232;2023-03-12T09:23:22;15.10;95.70
14008;DHT22;61651;45.508;12.232;2023-03-12T09:26:24;15.10;94.60
14008;DHT22;61651;45.508;12.232;2023-03-12T09:29:26;15.10;94.40
14008;DHT22;61651;45.508;12.232;2023-03-12T09:32:30;15.20;95.60
14008;DHT22;61651;45.508;12.232;2023-03-12T09:35:32;15.40;94.60
14008;DHT22;61651;45.508;12.232;2023-03-12T09:38:34;15.40;94.80
14008;DHT22;61651;45.508;12.232;2023-03-12T09:41:38;15.50;95.30
14008;DHT22;61651;45.508;12.232;2023-03-12T09:44:43;15.60;94.50
14008;DHT22;61651;45.508;12.232;2023-03-12T09:47:49;15.60;93.60
14008;DHT22;61651;45.508;12.232;2023-03-12T09:50:52;15.60;93.60
14008;DHT22;61651;45.508;12.232;2023-03-12T09:53:56;15.60;94.70
14008;DHT22;61651;45.508;12.232;2023-03-12T09:57:03;15.70;94.00
14008;DHT22;61651;45.508;12.232;2023-03-12T10:00:13;15.90;94.20
14008;DHT22;61651;45.508;12.232;2023-03-12T10:03:25;16.00;93.90
14008;DHT22;61651;45.508;12.232;2023-03-12T10:06:31;16.10;93.60
14008;DHT22;61651;45.508;12.232;2023-03-12T10:13:15;16.20;94.30
14008;DHT22;61651;45.508;12.232;2023-03-12T10:16:33;16.40;93.50
14008;DHT22;61651;45.508;12.232;2023-03-12T10:19:53;16.50;93.80
14008;DHT22;61651;45.508;12.232;2023-03-12T10:23:00;16.60;93.60
14008;DHT22;61651;45.508;12.232;2023-03-12T10:26:09;16.70;93.60
14008;DHT22;61651;45.508;12.232;2023-03-12T10:29:15;16.90;94.20
14008;DHT22;61651;45.508;12.232;2023-03-12T10:32:22;17.10;94.30
14008;DHT22;61651;45.508;12.232;2023-03-12T10:35:28;17.20;93.40
14008;DHT22;61651;45.508;12.232;2023-03-12T10:38:31;17.30;93.10
14008;DHT22;61651;45.508;12.232;2023-03-12T10:41:33;17.30;92.80
14008;DHT22;61651;45.508;12.232;2023-03-12T10:44:35;17.40;92.50
14008;DHT22;61651;45.508;12.232;2023-03-12T10:47:37;17.50;93.30
14008;DHT22;61651;45.508;12.232;2023-03-12T10:50:41;17.60;92.70
14008;DHT22;61651;45.508;12.232;2023-03-12T10:53:44;17.60;92.50
14008;DHT22;61651;45.508;12.232;2023-03-12T10:56:48;17.70;93.00
14008;DHT22;61651;45.508;12.232;2023-03-12T10:59:51;17.70;92.90
14008;DHT22;61651;45.508;12.232;2023-03-12T11:02:58;17.80;93.60
14008;DHT22;61651;45.508;12.232;2023-03-12T11:06:06;17.90;94.00
14008;DHT22;61651;45.508;12.232;2023-03-12T11:09:17;18.00;93.40
14008;DHT22;61651;45.508;12.232;2023-03-12T11:12:24;18.10;93.10
14008;DHT22;61651;45.508;12.232;2023-03-12T11:15:29;18.20;93.50
14008;DHT22;61651;45.508;12.232;2023-03-12T11:18:37;18.30;92.60
14008;DHT22;61651;45.508;12.232;2023-03-12T11:21:54;18.40;93.90
14008;DHT22;61651;45.508;12.232;2023-03-12T11:24:58;18.60;92.80
14008;DHT22;61651;45.508;12.232;2023-03-12T11:28:02;18.60;92.40
14008;DHT22;61651;45.508;12.232;2023-03-12T11:31:08;18.70;91.50
14008;DHT22;61651;45.508;12.232;2023-03-12T11:34:17;18.70;90.70
14008;DHT22;61651;45.508;12.232;2023-03-12T11:37:34;18.70;92.00
14008;DHT22;61651;45.508;12.232;2023-03-12T11:40:54;18.70;92.30
14008;DHT22;61651;45.508;12.232;2023-03-12T11:44:24;18.80;91.40
14008;DHT22;61651;45.508;12.232;2023-03-12T11:47:37;18.80;91.20
14008;DHT22;61651;45.508;12.232;2023-03-12T11:50:49;18.80;91.30
14008;DHT22;61651;45.508;12.232;2023-03-12T11:54:11;18.80;91.90
14008;DHT22;61651;45.508;12.232;2023-03-12T11:57:26;18.90;91.60
14008;DHT22;61651;45.508;12.232;2023-03-12T12:00:34;18.90;91.20
14008;DHT22;61651;45.508;12.232;2023-03-12T12:03:59;18.90;90.20
14008;DHT22;61651;45.508;12.232;2023-03-12T12:07:11;18.80;90.30
14008;DHT22;61651;45.508;12.232;2023-03-12T12:10:23;18.70;90.40
14008;DHT22;61651;45.508;12.232;2023-03-12T12:13:35;18.80;91.70
14008;DHT22;61651;45.508;12.232;2023-03-12T12:16:53;18.90;92.70
14008;DHT22;61651;45.508;12.232;2023-03-12T12:20:15;19.00;92.40
14008;DHT22;61651;45.508;12.232;2023-03-12T12:23:27;19.10;92.00
14008;DHT22;61651;45.508;12.232;2023-03-12T12:26:42;19.30;92.50
14008;DHT22;61651;45.508;12.232;2023-03-12T12:29:56;19.50;91.50
14008;DHT22;61651;45.508;12.232;2023-03-12T12:33:11;19.70;91.00
14008;DHT22;61651;45.508;12.232;2023-03-12T12:36:17;19.70;91.20
14008;DHT22;61651;45.508;12.232;2023-03-12T12:39:25;19.80;91.80
14008;DHT22;61651;45.508;12.232;2023-03-12T12:42:33;19.90;92.30
14008;DHT22;61651;45.508;12.232;2023-03-12T12:45:40;20.10;91.60
14008;DHT22;61651;45.508;12.232;2023-03-12T12:48:45;20.20;91.10
14008;DHT22;61651;45.508;12.232;2023-03-12T12:51:50;20.20;90.70
14008;DHT22;61651;45.508;12.232;2023-03-12T12:54:58;20.30;91.30
14008;DHT22;61651;45.508;12.232;2023-03-12T12:58:09;20.50;91.20
14008;DHT22;61651;45.508;12.232;2023-03-12T13:01:13;20.50;91.30
14008;DHT22;61651;45.508;12.232;2023-03-12T13:04:19;20.50;91.20
14008;DHT22;61651;45.508;12.232;2023-03-12T13:07:33;20.60;91.10
14008;DHT22;61651;45.508;12.232;2023-03-12T13:10:40;20.80;88.30
14008;DHT22;61651;45.508;12.232;2023-03-12T13:13:46;20.90;90.20
14008;DHT22;61651;45.508;12.232;2023-03-12T13:16:49;21.00;90.20
14008;DHT22;61651;45.508;12.232;2023-03-12T13:20:13;21.20;89.40
14008;DHT22;61651;45.508;12.232;2023-03-12T13:23:29;21.40;89.60
14008;DHT22;61651;45.508;12.232;2023-03-12T13:26:45;21.60;89.40
14008;DHT22;61651;45.508;12.232;2023-03-12T13:29:52;21.70;89.00
14008;DHT22;61651;45.508;12.232;2023-03-12T13:33:12;21.90;87.40
14008;DHT22;61651;45.508;12.232;2023-03-12T13:36:22;22.10;87.40
14008;DHT22;61651;45.508;12.232;2023-03-12T13:39:29;22.20;87.40
14008;DHT22;61651;45.508;12.232;2023-03-12T13:42:38;22.30;87.10
14008;DHT22;61651;45.508;12.232;2023-03-12T13:45:55;22.50;88.30
14008;DHT22;61651;45.508;12.232;2023-03-12T13:49:02;22.70;88.00
14008;DHT22;61651;45.508;12.232;2023-03-12T13:52:23;22.90;86.50
14008;DHT22;61651;45.508;12.232;2023-03-12T13:55:26;23.10;86.90
14008;DHT22;61651;45.508;12.232;2023-03-12T13:58:29;23.30;82.90
14008;DHT22;61651;45.508;12.232;2023-03-12T14:01:35;23.70;84.40
14008;DHT22;61651;45.508;12.232;2023-03-12T14:04:39;24.00;85.60
14008;DHT22;61651;45.508;12.232;2023-03-12T14:08:12;24.20;82.40
14008;DHT22;61651;45.508;12.232;2023-03-12T14:11:37;24.60;82.80
14008;DHT22;61651;45.508;12.232;2023-03-12T14:15:06;24.80;80.70
14008;DHT22;61651;45.508;12.232;2023-03-12T14:18:16;24.90;81.60
14008;DHT22;61651;45.508;12.232;2023-03-12T14:21:20;25.10;78.70
14008;DHT22;61651;45.508;12.232;2023-03-12T14:24:27;25.20;80.60
14008;DHT22;61651;45.508;12.232;2023-03-12T14:27:31;25.30;80.00
14008;DHT22;61651;45.508;12.232;2023-03-12T14:30:41;25.30;78.10
14008;DHT22;61651;45.508;12.232;2023-03-12T14:33:51;25.50;79.80
14008;DHT22;61651;45.508;12.232;2023-03-12T14:36:59;25.70;74.50
14008;DHT22;61651;45.508;12.232;2023-03-12T14:40:07;25.70;75.10
14008;DHT22;61651;45.508;12.232;2023-03-12T14:43:24;25.80;74.80
14008;DHT22;61651;45.508;12.232;2023-03-12T14:46:26;25.80;73.10
14008;DHT22;61651;45.508;12.232;2023-03-12T14:49:30;25.80;73.30
14008;DHT22;61651;45.508;12.232;2023-03-12T14:52:32;25.90;74.20
14008;DHT22;61651;45.508;12.232;2023-03-12T14:55:35;25.80;72.70
14008;DHT22;61651;45.508;12.232;2023-03-12T14:58:42;25.70;74.20
14008;DHT22;61651;45.508;12.232;2023-03-12T15:01:45;25.80;71.60
14008;DHT22;61651;45.508;12.232;2023-03-12T15:04:51;25.80;70.10
14008;DHT22;61651;45.508;12.232;2023-03-12T15:08:00;25.70;69.50
14008;DHT22;61651;45.508;12.232;2023-03-12T15:11:03;25.70;69.80
14008;DHT22;61651;45.508;12.232;2023-03-12T15:14:08;25.70;65.70
14008;DHT22;61651;45.508;12.232;2023-03-12T15:17:15;25.60;66.50
14008;DHT22;61651;45.508;12.232;2023-03-12T15:20:20;25.50;65.80
14008;DHT22;61651;45.508;12.232;2023-03-12T15:23:24;25.30;66.70
14008;DHT22;61651;45.508;12.232;2023-03-12T15:26:29;25.10;65.60
14008;DHT22;61651;45.508;12.232;2023-03-12T15:29:31;25.10;68.30
14008;DHT22;61651;45.508;12.232;2023-03-12T15:32:33;25.00;68.60
14008;DHT22;61651;45.508;12.232;2023-03-12T15:35:40;24.90;70.30
14008;DHT22;61651;45.508;12.232;2023-03-12T15:38:44;24.90;68.60
14008;DHT22;61651;45.508;12.232;2023-03-12T15:41:48;24.80;69.40
14008;DHT22;61651;45.508;12.232;2023-03-12T15:44:51;24.80;69.80
14008;DHT22;61651;45.508;12.232;2023-03-12T15:47:55;24.80;70.90
14008;DHT22;61651;45.508;12.232;2023-03-12T15:51:00;24.80;70.70
14008;DHT22;61651;45.508;12.232;2023-03-12T15:54:04;24.60;70.10
14008;DHT22;61651;45.508;12.232;2023-03-12T15:57:21;24.50;69.20
14008;DHT22;61651;45.508;12.232;2023-03-12T16:00:25;24.30;70.00
14008;DHT22;61651;45.508;12.232;2023-03-12T16:03:28;24.20;70.40
14008;DHT22;61651;45.508;12.232;2023-03-12T16:06:31;24.10;70.90
14008;DHT22;61651;45.508;12.232;2023-03-12T16:09:36;23.90;71.20
14008;DHT22;61651;45.508;12.232;2023-03-12T16:12:38;23.70;72.60
14008;DHT22;61651;45.508;12.232;2023-03-12T16:15:40;23.40;73.20
14008;DHT22;61651;45.508;12.232;2023-03-12T16:18:42;23.10;73.00
14008;DHT22;61651;45.508;12.232;2023-03-12T16:21:46;22.90;74.20
14008;DHT22;61651;45.508;12.232;2023-03-12T16:24:49;22.70;75.00
14008;DHT22;61651;45.508;12.232;2023-03-12T16:27:53;22.40;74.00
14008;DHT22;61651;45.508;12.232;2023-03-12T16:30:55;22.10;74.10
14008;DHT22;61651;45.508;12.232;2023-03-12T16:33:57;21.70;74.90
14008;DHT22;61651;45.508;12.232;2023-03-12T16:37:01;21.30;77.10
14008;DHT22;61651;45.508;12.232;2023-03-12T16:40:04;20.90;78.80
14008;DHT22;61651;45.508;12.232;2023-03-12T16:43:13;20.60;80.40
14008;DHT22;61651;45.508;12.232;2023-03-12T16:46:18;20.30;82.90
14008;DHT22;61651;45.508;12.232;2023-03-12T16:49:21;20.00;84.20
14008;DHT22;61651;45.508;12.232;2023-03-12T16:52:25;19.80;86.20
14008;DHT22;61651;45.508;12.232;2023-03-12T16:55:28;19.60;88.50
14008;DHT22;61651;45.508;12.232;2023-03-12T16:58:32;19.40;89.50
14008;DHT22;61651;45.508;12.232;2023-03-12T17:01:35;19.20;90.00
14008;DHT22;61651;45.508;12.232;2023-03-12T17:04:37;19.00;90.40
14008;DHT22;61651;45.508;12.232;2023-03-12T17:07:40;18.70;90.80
14008;DHT22;61651;45.508;12.232;2023-03-12T17:10:42;18.60;91.20
14008;DHT22;61651;45.508;12.232;2023-03-12T17:13:46;18.40;91.30
14008;DHT22;61651;45.508;12.232;2023-03-12T17:16:49;18.30;91.60
14008;DHT22;61651;45.508;12.232;2023-03-12T17:19:51;18.20;91.80
14008;DHT22;61651;45.508;12.232;2023-03-12T17:22:55;18.10;92.00
14008;DHT22;61651;45.508;12.232;2023-03-12T17:25:57;18.10;92.30
14008;DHT22;61651;45.508;12.232;2023-03-12T17:29:00;18.00;92.70
14008;DHT22;61651;45.508;12.232;2023-03-12T17:32:02;17.90;93.00
14008;DHT22;61651;45.508;12.232;2023-03-12T17:35:04;17.20;94.90
14008;DHT22;61651;45.508;12.232;2023-03-12T17:38:09;17.00;94.90
14008;DHT22;61651;45.508;12.232;2023-03-12T17:41:25;17.00;95.30
14008;DHT22;61651;45.508;12.232;2023-03-12T17:44:30;17.10;95.60
14008;DHT22;61651;45.508;12.232;2023-03-12T17:47:34;17.10;95.90
14008;DHT22;61651;45.508;12.232;2023-03-12T17:50:51;17.00;96.20
14008;DHT22;61651;45.508;12.232;2023-03-12T17:53:55;17.00;96.70
14008;DHT22;61651;45.508;12.232;2023-03-12T17:56:57;16.90;96.90
14008;DHT22;61651;45.508;12.232;2023-03-12T17:59:59;16.80;97.00
14008;DHT22;61651;45.508;12.232;2023-03-12T18:03:01;16.70;97.60
14008;DHT22;61651;45.508;12.232;2023-03-12T18:06:05;16.40;98.00
14008;DHT22;61651;45.508;12.232;2023-03-12T18:09:08;16.50;98.10
14008;DHT22;61651;45.508;12.232;2023-03-12T18:12:10;16.50;98.00
14008;DHT22;61651;45.508;12.232;2023-03-12T18:15:13;16.50;98.20
14008;DHT22;61651;45.508;12.232;2023-03-12T18:18:16;16.50;98.30
14008;DHT22;61651;45.508;12.232;2023-03-12T18:21:18;16.50;98.50
14008;DHT22;61651;45.508;12.232;2023-03-12T18:24:21;16.50;98.70
14008;DHT22;61651;45.508;12.232;2023-03-12T18:27:23;16.40;98.90
14008;DHT22;61651;45.508;12.232;2023-03-12T18:30:25;16.40;99.00
14008;DHT22;61651;45.508;12.232;2023-03-12T18:33:28;16.30;99.30
14008;DHT22;61651;45.508;12.232;2023-03-12T18:36:30;16.20;99.60
14008;DHT22;61651;45.508;12.232;2023-03-12T18:39:33;16.10;99.70
14008;DHT22;61651;45.508;12.232;2023-03-12T18:42:35;16.10;99.90
14008;DHT22;61651;45.508;12.232;2023-03-12T18:45:40;16.00;99.90
14008;DHT22;61651;45.508;12.232;2023-03-12T18:48:43;16.00;99.90
14008;DHT22;61651;45.508;12.232;2023-03-12T18:51:45;15.90;99.90
14008;DHT22;61651;45.508;12.232;2023-03-12T18:54:48;15.90;99.90
14008;DHT22;61651;45.508;12.232;2023-03-12T18:57:50;15.80;99.90
14008;DHT22;61651;45.508;12.232;2023-03-12T19:00:55;15.70;99.90
14008;DHT22;61651;45.508;12.232;2023-03-12T19:03:57;15.60;99.90
14008;DHT22;61651;45.508;12.232;2023-03-12T19:06:59;15.50;99.90
14008;DHT22;61651;45.508;12.232;2023-03-12T19:10:02;15.50;99.90
14008;DHT22;61651;45.508;12.232;2023-03-12T19:13:04;15.40;99.90